KHAF

Half Moon Bay Airport

Half Moon Bay, California, USA
METAR KHAF 181255Z AUTO 00000KT 10SM CLR 06/06 A3029 RMK AO2
Observed Flight Rules
Dec-18 @ 12:55 UTC (13 minutes ago) Visual Flight Rules
Visibility Clouds
10 miles
  • Clear skies
Temperatures Readings
Current 6°C / 43°F
Dewpoint 6°C / 43°F
Humidity 100%
Altimeter 30.29" Hg
Pressure 1026 hPa
Elevation 21
METAR KHAF 181255Z AUTO 00000KT 10SM CLR 06/06 A3029 RMK AO2
Observed Flight Rules
Dec-18 @ 12:55 UTC
(13 minutes ago)
VFR
Clouds
  • Clear skies
Temperature Dewpoint
6°C / 43°F 6°C / 43°F
Humidity Altimeter Pressure
100% 30.29" Hg 1026 hPa